sensor_id;sensor_type;location;lat;lon;timestamp;P1;durP1;ratioP1;P2;durP2;ratioP2
14726;SDS011;7454;51.256;8.176;2022-07-25T00:00:44;11.40;;;7.78;;
14726;SDS011;7454;51.256;8.176;2022-07-25T00:03:10;14.23;;;7.95;;
14726;SDS011;7454;51.256;8.176;2022-07-25T00:05:36;14.63;;;7.75;;
14726;SDS011;7454;51.256;8.176;2022-07-25T00:08:01;13.32;;;7.95;;
14726;SDS011;7454;51.256;8.176;2022-07-25T00:10:27;14.18;;;8.25;;
14726;SDS011;7454;51.256;8.176;2022-07-25T00:12:53;13.25;;;8.32;;
14726;SDS011;7454;51.256;8.176;2022-07-25T00:15:19;13.90;;;7.75;;
14726;SDS011;7454;51.256;8.176;2022-07-25T00:17:45;12.23;;;8.18;;
14726;SDS011;7454;51.256;8.176;2022-07-25T00:20:11;16.42;;;7.68;;
14726;SDS011;7454;51.256;8.176;2022-07-25T00:22:37;14.70;;;7.47;;
14726;SDS011;7454;51.256;8.176;2022-07-25T00:25:04;12.35;;;8.48;;
14726;SDS011;7454;51.256;8.176;2022-07-25T00:27:30;12.85;;;7.50;;
14726;SDS011;7454;51.256;8.176;2022-07-25T00:29:56;13.20;;;7.85;;
14726;SDS011;7454;51.256;8.176;2022-07-25T00:32:22;15.45;;;8.50;;
14726;SDS011;7454;51.256;8.176;2022-07-25T00:34:47;12.85;;;8.38;;
14726;SDS011;7454;51.256;8.176;2022-07-25T00:37:13;14.23;;;8.75;;
14726;SDS011;7454;51.256;8.176;2022-07-25T00:39:39;15.27;;;8.57;;
14726;SDS011;7454;51.256;8.176;2022-07-25T00:42:05;13.68;;;8.23;;
14726;SDS011;7454;51.256;8.176;2022-07-25T00:44:31;13.65;;;8.68;;
14726;SDS011;7454;51.256;8.176;2022-07-25T00:46:58;13.82;;;8.38;;
14726;SDS011;7454;51.256;8.176;2022-07-25T00:49:24;11.55;;;7.80;;
14726;SDS011;7454;51.256;8.176;2022-07-25T00:51:51;11.20;;;7.78;;
14726;SDS011;7454;51.256;8.176;2022-07-25T00:54:18;13.50;;;8.00;;
14726;SDS011;7454;51.256;8.176;2022-07-25T00:56:45;15.38;;;8.40;;
14726;SDS011;7454;51.256;8.176;2022-07-25T00:59:12;11.75;;;8.40;;
14726;SDS011;7454;51.256;8.176;2022-07-25T01:01:38;11.05;;;7.25;;
14726;SDS011;7454;51.256;8.176;2022-07-25T01:04:09;14.00;;;8.38;;
14726;SDS011;7454;51.256;8.176;2022-07-25T01:06:35;12.00;;;7.80;;
14726;SDS011;7454;51.256;8.176;2022-07-25T01:09:02;14.00;;;8.57;;
14726;SDS011;7454;51.256;8.176;2022-07-25T01:11:28;14.70;;;8.10;;
14726;SDS011;7454;51.256;8.176;2022-07-25T01:13:54;13.88;;;8.27;;
14726;SDS011;7454;51.256;8.176;2022-07-25T01:16:20;12.45;;;8.63;;
14726;SDS011;7454;51.256;8.176;2022-07-25T01:18:46;12.50;;;8.68;;
14726;SDS011;7454;51.256;8.176;2022-07-25T01:21:11;12.05;;;8.00;;
14726;SDS011;7454;51.256;8.176;2022-07-25T01:23:38;16.13;;;7.95;;
14726;SDS011;7454;51.256;8.176;2022-07-25T01:26:05;13.77;;;8.35;;
14726;SDS011;7454;51.256;8.176;2022-07-25T01:28:31;12.18;;;8.70;;
14726;SDS011;7454;51.256;8.176;2022-07-25T01:30:57;13.15;;;8.50;;
14726;SDS011;7454;51.256;8.176;2022-07-25T01:33:23;13.45;;;8.20;;
14726;SDS011;7454;51.256;8.176;2022-07-25T01:35:51;14.90;;;8.02;;
14726;SDS011;7454;51.256;8.176;2022-07-25T01:38:17;14.85;;;9.05;;
14726;SDS011;7454;51.256;8.176;2022-07-25T01:40:43;15.48;;;8.70;;
14726;SDS011;7454;51.256;8.176;2022-07-25T01:43:09;13.82;;;8.82;;
14726;SDS011;7454;51.256;8.176;2022-07-25T01:45:36;17.67;;;8.48;;
14726;SDS011;7454;51.256;8.176;2022-07-25T01:48:02;14.27;;;7.88;;
14726;SDS011;7454;51.256;8.176;2022-07-25T01:50:28;11.48;;;8.20;;
14726;SDS011;7454;51.256;8.176;2022-07-25T01:52:54;12.23;;;8.45;;
14726;SDS011;7454;51.256;8.176;2022-07-25T01:55:20;13.93;;;7.97;;
14726;SDS011;7454;51.256;8.176;2022-07-25T01:57:46;14.50;;;8.55;;
14726;SDS011;7454;51.256;8.176;2022-07-25T02:00:12;13.38;;;8.48;;
14726;SDS011;7454;51.256;8.176;2022-07-25T02:02:40;12.60;;;8.50;;
14726;SDS011;7454;51.256;8.176;2022-07-25T02:05:08;13.23;;;8.55;;
14726;SDS011;7454;51.256;8.176;2022-07-25T02:07:35;13.45;;;8.77;;
14726;SDS011;7454;51.256;8.176;2022-07-25T02:10:03;11.80;;;8.40;;
14726;SDS011;7454;51.256;8.176;2022-07-25T02:12:31;15.32;;;8.77;;
14726;SDS011;7454;51.256;8.176;2022-07-25T02:14:57;13.70;;;8.90;;
14726;SDS011;7454;51.256;8.176;2022-07-25T02:17:23;13.23;;;8.40;;
14726;SDS011;7454;51.256;8.176;2022-07-25T02:19:49;12.15;;;8.63;;
14726;SDS011;7454;51.256;8.176;2022-07-25T02:22:15;11.90;;;8.55;;
14726;SDS011;7454;51.256;8.176;2022-07-25T02:24:41;14.27;;;9.07;;
14726;SDS011;7454;51.256;8.176;2022-07-25T02:27:07;12.98;;;8.90;;
14726;SDS011;7454;51.256;8.176;2022-07-25T02:29:34;12.82;;;8.65;;
14726;SDS011;7454;51.256;8.176;2022-07-25T02:32:00;13.82;;;8.95;;
14726;SDS011;7454;51.256;8.176;2022-07-25T02:34:26;18.80;;;9.25;;
14726;SDS011;7454;51.256;8.176;2022-07-25T02:36:51;13.57;;;8.95;;
14726;SDS011;7454;51.256;8.176;2022-07-25T02:39:17;17.05;;;9.52;;
14726;SDS011;7454;51.256;8.176;2022-07-25T02:41:43;13.70;;;8.65;;
14726;SDS011;7454;51.256;8.176;2022-07-25T02:44:09;14.57;;;8.65;;
14726;SDS011;7454;51.256;8.176;2022-07-25T02:46:35;19.23;;;9.60;;
14726;SDS011;7454;51.256;8.176;2022-07-25T02:49:01;15.38;;;8.43;;
14726;SDS011;7454;51.256;8.176;2022-07-25T02:51:27;13.77;;;9.05;;
14726;SDS011;7454;51.256;8.176;2022-07-25T02:53:53;14.35;;;9.13;;
14726;SDS011;7454;51.256;8.176;2022-07-25T02:56:19;15.98;;;9.13;;
14726;SDS011;7454;51.256;8.176;2022-07-25T02:58:45;13.30;;;9.48;;
14726;SDS011;7454;51.256;8.176;2022-07-25T03:01:11;14.23;;;9.30;;
14726;SDS011;7454;51.256;8.176;2022-07-25T03:03:36;11.98;;;8.38;;
14726;SDS011;7454;51.256;8.176;2022-07-25T03:06:03;13.68;;;8.90;;
14726;SDS011;7454;51.256;8.176;2022-07-25T03:08:29;14.90;;;9.15;;
14726;SDS011;7454;51.256;8.176;2022-07-25T03:10:55;12.38;;;8.35;;
14726;SDS011;7454;51.256;8.176;2022-07-25T03:13:20;15.23;;;9.07;;
14726;SDS011;7454;51.256;8.176;2022-07-25T03:15:46;12.38;;;8.27;;
14726;SDS011;7454;51.256;8.176;2022-07-25T03:18:12;14.48;;;8.45;;
14726;SDS011;7454;51.256;8.176;2022-07-25T03:20:38;13.68;;;8.98;;
14726;SDS011;7454;51.256;8.176;2022-07-25T03:23:03;14.50;;;8.80;;
14726;SDS011;7454;51.256;8.176;2022-07-25T03:25:29;13.43;;;9.00;;
14726;SDS011;7454;51.256;8.176;2022-07-25T03:27:55;17.50;;;8.50;;
14726;SDS011;7454;51.256;8.176;2022-07-25T03:30:21;13.02;;;8.88;;
14726;SDS011;7454;51.256;8.176;2022-07-25T03:32:47;12.68;;;8.55;;
14726;SDS011;7454;51.256;8.176;2022-07-25T03:35:13;13.40;;;8.80;;
14726;SDS011;7454;51.256;8.176;2022-07-25T03:37:40;13.88;;;9.10;;
14726;SDS011;7454;51.256;8.176;2022-07-25T03:40:06;16.70;;;9.50;;
14726;SDS011;7454;51.256;8.176;2022-07-25T03:42:33;12.43;;;8.80;;
14726;SDS011;7454;51.256;8.176;2022-07-25T03:44:59;12.85;;;8.88;;
14726;SDS011;7454;51.256;8.176;2022-07-25T03:47:25;13.20;;;8.88;;
14726;SDS011;7454;51.256;8.176;2022-07-25T03:49:51;14.77;;;8.32;;
14726;SDS011;7454;51.256;8.176;2022-07-25T03:52:17;11.57;;;8.25;;
14726;SDS011;7454;51.256;8.176;2022-07-25T03:54:43;13.50;;;9.05;;
14726;SDS011;7454;51.256;8.176;2022-07-25T03:57:09;15.35;;;8.88;;
14726;SDS011;7454;51.256;8.176;2022-07-25T03:59:36;15.98;;;8.88;;
14726;SDS011;7454;51.256;8.176;2022-07-25T04:02:02;14.75;;;9.23;;
14726;SDS011;7454;51.256;8.176;2022-07-25T04:04:29;14.93;;;8.93;;
14726;SDS011;7454;51.256;8.176;2022-07-25T04:06:54;16.98;;;9.45;;
14726;SDS011;7454;51.256;8.176;2022-07-25T04:09:20;13.57;;;9.15;;
14726;SDS011;7454;51.256;8.176;2022-07-25T04:11:46;15.85;;;9.05;;
14726;SDS011;7454;51.256;8.176;2022-07-25T04:14:12;12.65;;;8.85;;
14726;SDS011;7454;51.256;8.176;2022-07-25T04:16:38;15.52;;;9.02;;
14726;SDS011;7454;51.256;8.176;2022-07-25T04:19:04;13.27;;;9.10;;
14726;SDS011;7454;51.256;8.176;2022-07-25T04:21:30;12.52;;;9.18;;
14726;SDS011;7454;51.256;8.176;2022-07-25T04:23:56;14.85;;;8.73;;
14726;SDS011;7454;51.256;8.176;2022-07-25T04:26:22;14.52;;;9.75;;
14726;SDS011;7454;51.256;8.176;2022-07-25T04:28:48;12.77;;;9.35;;
14726;SDS011;7454;51.256;8.176;2022-07-25T04:31:14;13.43;;;9.63;;
14726;SDS011;7454;51.256;8.176;2022-07-25T04:33:40;15.95;;;10.10;;
14726;SDS011;7454;51.256;8.176;2022-07-25T04:36:07;16.23;;;9.88;;
14726;SDS011;7454;51.256;8.176;2022-07-25T04:38:34;14.80;;;9.30;;
14726;SDS011;7454;51.256;8.176;2022-07-25T04:41:00;13.93;;;9.45;;
14726;SDS011;7454;51.256;8.176;2022-07-25T04:43:27;13.32;;;8.95;;
14726;SDS011;7454;51.256;8.176;2022-07-25T04:45:53;12.60;;;9.43;;
14726;SDS011;7454;51.256;8.176;2022-07-25T04:48:19;12.13;;;9.13;;
14726;SDS011;7454;51.256;8.176;2022-07-25T04:50:44;13.15;;;8.82;;
14726;SDS011;7454;51.256;8.176;2022-07-25T04:53:10;13.10;;;9.00;;
14726;SDS011;7454;51.256;8.176;2022-07-25T04:55:36;12.98;;;9.10;;
14726;SDS011;7454;51.256;8.176;2022-07-25T04:58:03;22.02;;;8.48;;
14726;SDS011;7454;51.256;8.176;2022-07-25T05:00:29;12.60;;;8.77;;
14726;SDS011;7454;51.256;8.176;2022-07-25T05:02:56;13.88;;;9.48;;
14726;SDS011;7454;51.256;8.176;2022-07-25T05:05:22;12.20;;;8.98;;
14726;SDS011;7454;51.256;8.176;2022-07-25T05:07:48;14.98;;;8.98;;
14726;SDS011;7454;51.256;8.176;2022-07-25T05:10:15;13.85;;;9.70;;
14726;SDS011;7454;51.256;8.176;2022-07-25T05:12:42;15.85;;;9.60;;
14726;SDS011;7454;51.256;8.176;2022-07-25T05:15:08;13.52;;;9.18;;
14726;SDS011;7454;51.256;8.176;2022-07-25T05:17:34;18.20;;;9.57;;
14726;SDS011;7454;51.256;8.176;2022-07-25T05:20:00;16.27;;;9.55;;
14726;SDS011;7454;51.256;8.176;2022-07-25T05:22:27;13.95;;;9.57;;
14726;SDS011;7454;51.256;8.176;2022-07-25T05:24:53;14.50;;;9.23;;
14726;SDS011;7454;51.256;8.176;2022-07-25T05:27:20;13.50;;;9.18;;
14726;SDS011;7454;51.256;8.176;2022-07-25T05:29:45;13.02;;;8.45;;
14726;SDS011;7454;51.256;8.176;2022-07-25T05:32:11;13.23;;;9.05;;
14726;SDS011;7454;51.256;8.176;2022-07-25T05:34:37;16.85;;;8.52;;
14726;SDS011;7454;51.256;8.176;2022-07-25T05:37:03;14.77;;;9.30;;
14726;SDS011;7454;51.256;8.176;2022-07-25T05:39:29;15.60;;;9.02;;
14726;SDS011;7454;51.256;8.176;2022-07-25T05:41:54;12.90;;;8.18;;
14726;SDS011;7454;51.256;8.176;2022-07-25T05:44:20;14.52;;;8.73;;
14726;SDS011;7454;51.256;8.176;2022-07-25T05:46:46;13.48;;;9.20;;
14726;SDS011;7454;51.256;8.176;2022-07-25T05:49:12;15.30;;;9.18;;
14726;SDS011;7454;51.256;8.176;2022-07-25T05:51:38;14.65;;;8.85;;
14726;SDS011;7454;51.256;8.176;2022-07-25T05:54:03;13.35;;;9.02;;
14726;SDS011;7454;51.256;8.176;2022-07-25T05:56:29;15.38;;;9.55;;
14726;SDS011;7454;51.256;8.176;2022-07-25T05:58:55;11.65;;;8.35;;
14726;SDS011;7454;51.256;8.176;2022-07-25T06:01:21;17.23;;;8.63;;
14726;SDS011;7454;51.256;8.176;2022-07-25T06:03:47;12.98;;;9.15;;
14726;SDS011;7454;51.256;8.176;2022-07-25T06:06:13;13.15;;;9.05;;
14726;SDS011;7454;51.256;8.176;2022-07-25T06:08:39;12.25;;;8.63;;
14726;SDS011;7454;51.256;8.176;2022-07-25T06:11:05;12.35;;;8.43;;
14726;SDS011;7454;51.256;8.176;2022-07-25T06:13:32;35.28;;;10.60;;
14726;SDS011;7454;51.256;8.176;2022-07-25T06:15:58;162.40;;;19.13;;
14726;SDS011;7454;51.256;8.176;2022-07-25T06:18:24;142.77;;;17.33;;
14726;SDS011;7454;51.256;8.176;2022-07-25T06:20:51;46.17;;;12.13;;
14726;SDS011;7454;51.256;8.176;2022-07-25T06:23:18;28.30;;;10.75;;
14726;SDS011;7454;51.256;8.176;2022-07-25T06:25:44;14.40;;;8.65;;
14726;SDS011;7454;51.256;8.176;2022-07-25T06:28:13;21.00;;;8.95;;
14726;SDS011;7454;51.256;8.176;2022-07-25T06:30:43;17.10;;;8.57;;
14726;SDS011;7454;51.256;8.176;2022-07-25T06:33:10;15.10;;;8.20;;
14726;SDS011;7454;51.256;8.176;2022-07-25T06:35:36;16.35;;;8.13;;
14726;SDS011;7454;51.256;8.176;2022-07-25T06:38:02;14.90;;;8.25;;
14726;SDS011;7454;51.256;8.176;2022-07-25T06:40:28;14.77;;;8.70;;
14726;SDS011;7454;51.256;8.176;2022-07-25T06:42:55;16.65;;;8.88;;
14726;SDS011;7454;51.256;8.176;2022-07-25T06:45:22;15.07;;;8.13;;
14726;SDS011;7454;51.256;8.176;2022-07-25T06:47:48;18.73;;;8.55;;
14726;SDS011;7454;51.256;8.176;2022-07-25T06:50:15;17.23;;;8.75;;
14726;SDS011;7454;51.256;8.176;2022-07-25T06:52:43;13.88;;;8.15;;
14726;SDS011;7454;51.256;8.176;2022-07-25T06:55:10;16.55;;;8.40;;
14726;SDS011;7454;51.256;8.176;2022-07-25T06:57:39;14.35;;;7.90;;
14726;SDS011;7454;51.256;8.176;2022-07-25T07:00:07;22.65;;;8.60;;
14726;SDS011;7454;51.256;8.176;2022-07-25T07:02:52;12.27;;;7.93;;
14726;SDS011;7454;51.256;8.176;2022-07-25T07:05:28;13.00;;;8.00;;
14726;SDS011;7454;51.256;8.176;2022-07-25T07:07:57;13.65;;;8.23;;
14726;SDS011;7454;51.256;8.176;2022-07-25T07:10:24;18.75;;;8.35;;
14726;SDS011;7454;51.256;8.176;2022-07-25T07:13:02;12.73;;;7.30;;
14726;SDS011;7454;51.256;8.176;2022-07-25T07:15:35;13.50;;;7.43;;
14726;SDS011;7454;51.256;8.176;2022-07-25T07:18:02;12.23;;;7.45;;
14726;SDS011;7454;51.256;8.176;2022-07-25T07:20:30;12.63;;;7.35;;
14726;SDS011;7454;51.256;8.176;2022-07-25T07:22:56;11.13;;;6.95;;
14726;SDS011;7454;51.256;8.176;2022-07-25T07:25:22;11.88;;;6.50;;
14726;SDS011;7454;51.256;8.176;2022-07-25T07:27:48;16.02;;;7.90;;
14726;SDS011;7454;51.256;8.176;2022-07-25T07:30:15;14.00;;;6.93;;
14726;SDS011;7454;51.256;8.176;2022-07-25T07:32:42;16.13;;;7.13;;
14726;SDS011;7454;51.256;8.176;2022-07-25T07:35:10;12.75;;;6.75;;
14726;SDS011;7454;51.256;8.176;2022-07-25T07:37:36;14.43;;;6.80;;
14726;SDS011;7454;51.256;8.176;2022-07-25T07:40:02;12.85;;;6.95;;
14726;SDS011;7454;51.256;8.176;2022-07-25T07:42:37;13.05;;;6.40;;
14726;SDS011;7454;51.256;8.176;2022-07-25T07:45:15;9.80;;;6.18;;
14726;SDS011;7454;51.256;8.176;2022-07-25T07:47:47;11.63;;;6.25;;
14726;SDS011;7454;51.256;8.176;2022-07-25T07:50:15;10.57;;;6.38;;
14726;SDS011;7454;51.256;8.176;2022-07-25T07:52:43;10.27;;;6.25;;
14726;SDS011;7454;51.256;8.176;2022-07-25T07:55:10;12.50;;;6.07;;
14726;SDS011;7454;51.256;8.176;2022-07-25T07:57:54;11.57;;;6.47;;
14726;SDS011;7454;51.256;8.176;2022-07-25T08:00:21;11.15;;;6.20;;
14726;SDS011;7454;51.256;8.176;2022-07-25T08:02:48;11.32;;;6.50;;
14726;SDS011;7454;51.256;8.176;2022-07-25T08:05:23;9.95;;;5.78;;
14726;SDS011;7454;51.256;8.176;2022-07-25T08:07:56;10.30;;;5.88;;
14726;SDS011;7454;51.256;8.176;2022-07-25T08:10:23;12.40;;;6.18;;
14726;SDS011;7454;51.256;8.176;2022-07-25T08:12:55;11.05;;;5.85;;
14726;SDS011;7454;51.256;8.176;2022-07-25T08:15:23;12.45;;;6.35;;
14726;SDS011;7454;51.256;8.176;2022-07-25T08:17:49;10.93;;;6.60;;
14726;SDS011;7454;51.256;8.176;2022-07-25T08:20:16;12.00;;;6.32;;
14726;SDS011;7454;51.256;8.176;2022-07-25T08:22:45;10.77;;;6.60;;
14726;SDS011;7454;51.256;8.176;2022-07-25T08:25:13;13.93;;;6.32;;
14726;SDS011;7454;51.256;8.176;2022-07-25T08:27:42;10.27;;;6.07;;
14726;SDS011;7454;51.256;8.176;2022-07-25T08:30:10;10.68;;;6.30;;
14726;SDS011;7454;51.256;8.176;2022-07-25T08:33:12;12.77;;;5.90;;
14726;SDS011;7454;51.256;8.176;2022-07-25T08:35:37;10.38;;;5.70;;
14726;SDS011;7454;51.256;8.176;2022-07-25T08:38:05;12.75;;;6.28;;
14726;SDS011;7454;51.256;8.176;2022-07-25T08:40:32;10.60;;;5.80;;
14726;SDS011;7454;51.256;8.176;2022-07-25T08:42:58;13.77;;;6.28;;
14726;SDS011;7454;51.256;8.176;2022-07-25T08:45:25;16.77;;;6.18;;
14726;SDS011;7454;51.256;8.176;2022-07-25T08:47:52;10.73;;;5.70;;
14726;SDS011;7454;51.256;8.176;2022-07-25T08:50:23;11.57;;;5.93;;
14726;SDS011;7454;51.256;8.176;2022-07-25T08:52:54;15.45;;;6.70;;
14726;SDS011;7454;51.256;8.176;2022-07-25T08:55:21;12.30;;;5.80;;
14726;SDS011;7454;51.256;8.176;2022-07-25T08:57:52;14.23;;;5.38;;
14726;SDS011;7454;51.256;8.176;2022-07-25T09:00:19;12.10;;;5.72;;
14726;SDS011;7454;51.256;8.176;2022-07-25T09:02:57;11.57;;;5.43;;
14726;SDS011;7454;51.256;8.176;2022-07-25T09:05:26;12.15;;;5.88;;
14726;SDS011;7454;51.256;8.176;2022-07-25T09:07:55;10.57;;;5.80;;
14726;SDS011;7454;51.256;8.176;2022-07-25T09:10:23;12.77;;;5.75;;
14726;SDS011;7454;51.256;8.176;2022-07-25T09:17:54;20.70;;;6.15;;
14726;SDS011;7454;51.256;8.176;2022-07-25T09:20:36;13.90;;;5.97;;
14726;SDS011;7454;51.256;8.176;2022-07-25T09:23:14;15.40;;;6.10;;
14726;SDS011;7454;51.256;8.176;2022-07-25T09:26:10;17.83;;;6.15;;
14726;SDS011;7454;51.256;8.176;2022-07-25T09:28:42;10.23;;;5.90;;
14726;SDS011;7454;51.256;8.176;2022-07-25T09:31:13;12.82;;;5.43;;
14726;SDS011;7454;51.256;8.176;2022-07-25T09:33:49;11.75;;;5.93;;
14726;SDS011;7454;51.256;8.176;2022-07-25T09:36:20;12.57;;;5.90;;
14726;SDS011;7454;51.256;8.176;2022-07-25T09:38:51;15.82;;;6.30;;
14726;SDS011;7454;51.256;8.176;2022-07-25T09:41:21;13.05;;;5.72;;
14726;SDS011;7454;51.256;8.176;2022-07-25T09:44:00;11.35;;;5.78;;
14726;SDS011;7454;51.256;8.176;2022-07-25T09:46:30;10.50;;;5.65;;
14726;SDS011;7454;51.256;8.176;2022-07-25T09:48:58;10.32;;;5.55;;
14726;SDS011;7454;51.256;8.176;2022-07-25T09:51:25;12.20;;;5.32;;
14726;SDS011;7454;51.256;8.176;2022-07-25T09:53:52;13.35;;;5.28;;
14726;SDS011;7454;51.256;8.176;2022-07-25T09:56:17;12.98;;;4.93;;
14726;SDS011;7454;51.256;8.176;2022-07-25T09:58:43;11.63;;;5.55;;
14726;SDS011;7454;51.256;8.176;2022-07-25T10:01:09;9.57;;;5.50;;
14726;SDS011;7454;51.256;8.176;2022-07-25T10:03:51;8.25;;;4.85;;
14726;SDS011;7454;51.256;8.176;2022-07-25T10:07:18;10.23;;;5.03;;
14726;SDS011;7454;51.256;8.176;2022-07-25T10:09:40;11.10;;;5.38;;
14726;SDS011;7454;51.256;8.176;2022-07-25T10:15:08;14.55;;;5.20;;
14726;SDS011;7454;51.256;8.176;2022-07-25T10:17:36;12.50;;;5.18;;
14726;SDS011;7454;51.256;8.176;2022-07-25T10:20:05;11.63;;;4.82;;
14726;SDS011;7454;51.256;8.176;2022-07-25T10:22:43;8.10;;;4.82;;
14726;SDS011;7454;51.256;8.176;2022-07-25T10:25:11;9.27;;;5.00;;
14726;SDS011;7454;51.256;8.176;2022-07-25T10:27:42;11.40;;;5.65;;
14726;SDS011;7454;51.256;8.176;2022-07-25T10:30:27;8.93;;;5.15;;
14726;SDS011;7454;51.256;8.176;2022-07-25T10:33:10;10.48;;;4.72;;
14726;SDS011;7454;51.256;8.176;2022-07-25T10:35:39;12.18;;;4.80;;
14726;SDS011;7454;51.256;8.176;2022-07-25T10:38:06;9.90;;;4.95;;
14726;SDS011;7454;51.256;8.176;2022-07-25T10:40:36;11.18;;;5.13;;
14726;SDS011;7454;51.256;8.176;2022-07-25T10:45:49;9.75;;;4.78;;
14726;SDS011;7454;51.256;8.176;2022-07-25T10:48:25;10.15;;;4.72;;
14726;SDS011;7454;51.256;8.176;2022-07-25T10:51:07;11.77;;;5.00;;
14726;SDS011;7454;51.256;8.176;2022-07-25T10:53:38;14.05;;;4.70;;
14726;SDS011;7454;51.256;8.176;2022-07-25T10:56:15;12.68;;;5.32;;
14726;SDS011;7454;51.256;8.176;2022-07-25T10:58:59;13.93;;;5.20;;
14726;SDS011;7454;51.256;8.176;2022-07-25T11:01:26;13.23;;;5.45;;
14726;SDS011;7454;51.256;8.176;2022-07-25T11:04:02;9.75;;;4.70;;
14726;SDS011;7454;51.256;8.176;2022-07-25T11:06:34;10.02;;;4.60;;
14726;SDS011;7454;51.256;8.176;2022-07-25T11:09:03;10.15;;;4.68;;
14726;SDS011;7454;51.256;8.176;2022-07-25T11:11:40;12.20;;;5.32;;
14726;SDS011;7454;51.256;8.176;2022-07-25T11:14:13;15.13;;;5.10;;
14726;SDS011;7454;51.256;8.176;2022-07-25T11:16:47;14.10;;;5.10;;
14726;SDS011;7454;51.256;8.176;2022-07-25T11:19:21;9.95;;;4.90;;
14726;SDS011;7454;51.256;8.176;2022-07-25T11:21:58;9.80;;;5.00;;
14726;SDS011;7454;51.256;8.176;2022-07-25T11:24:41;12.63;;;5.00;;
14726;SDS011;7454;51.256;8.176;2022-07-25T11:27:09;13.85;;;4.75;;
14726;SDS011;7454;51.256;8.176;2022-07-25T11:30:05;10.02;;;5.45;;
14726;SDS011;7454;51.256;8.176;2022-07-25T11:32:38;10.00;;;4.32;;
14726;SDS011;7454;51.256;8.176;2022-07-25T11:35:06;12.50;;;4.97;;
14726;SDS011;7454;51.256;8.176;2022-07-25T11:37:34;11.15;;;5.18;;
14726;SDS011;7454;51.256;8.176;2022-07-25T11:40:03;12.85;;;4.75;;
14726;SDS011;7454;51.256;8.176;2022-07-25T11:42:41;9.65;;;5.00;;
14726;SDS011;7454;51.256;8.176;2022-07-25T11:45:18;16.85;;;5.07;;
14726;SDS011;7454;51.256;8.176;2022-07-25T11:48:10;10.40;;;4.90;;
14726;SDS011;7454;51.256;8.176;2022-07-25T11:50:38;10.63;;;5.60;;
14726;SDS011;7454;51.256;8.176;2022-07-25T11:53:08;11.88;;;5.70;;
14726;SDS011;7454;51.256;8.176;2022-07-25T11:55:38;11.38;;;5.43;;
14726;SDS011;7454;51.256;8.176;2022-07-25T11:58:06;10.88;;;5.28;;
14726;SDS011;7454;51.256;8.176;2022-07-25T12:00:44;11.50;;;5.70;;
14726;SDS011;7454;51.256;8.176;2022-07-25T12:03:15;13.90;;;5.15;;
14726;SDS011;7454;51.256;8.176;2022-07-25T12:05:44;11.55;;;5.55;;
14726;SDS011;7454;51.256;8.176;2022-07-25T12:08:11;12.30;;;5.63;;
14726;SDS011;7454;51.256;8.176;2022-07-25T12:10:43;10.95;;;5.20;;
14726;SDS011;7454;51.256;8.176;2022-07-25T12:13:22;10.23;;;5.63;;
14726;SDS011;7454;51.256;8.176;2022-07-25T12:15:50;14.77;;;5.57;;
14726;SDS011;7454;51.256;8.176;2022-07-25T12:18:17;11.75;;;5.57;;
14726;SDS011;7454;51.256;8.176;2022-07-25T12:20:43;10.05;;;5.40;;
14726;SDS011;7454;51.256;8.176;2022-07-25T12:23:10;12.57;;;5.30;;
14726;SDS011;7454;51.256;8.176;2022-07-25T12:25:38;8.43;;;4.85;;
14726;SDS011;7454;51.256;8.176;2022-07-25T12:28:08;10.68;;;5.03;;
14726;SDS011;7454;51.256;8.176;2022-07-25T12:30:35;9.18;;;5.15;;
14726;SDS011;7454;51.256;8.176;2022-07-25T12:33:03;12.30;;;5.03;;
14726;SDS011;7454;51.256;8.176;2022-07-25T12:35:30;12.02;;;5.30;;
14726;SDS011;7454;51.256;8.176;2022-07-25T12:37:56;14.20;;;5.30;;
14726;SDS011;7454;51.256;8.176;2022-07-25T12:40:22;10.20;;;5.07;;
14726;SDS011;7454;51.256;8.176;2022-07-25T12:42:48;9.75;;;5.22;;
14726;SDS011;7454;51.256;8.176;2022-07-25T12:45:15;11.45;;;5.32;;
14726;SDS011;7454;51.256;8.176;2022-07-25T12:47:45;9.95;;;4.78;;
14726;SDS011;7454;51.256;8.176;2022-07-25T12:50:12;11.43;;;4.85;;
14726;SDS011;7454;51.256;8.176;2022-07-25T12:52:40;11.32;;;4.97;;
14726;SDS011;7454;51.256;8.176;2022-07-25T12:55:08;8.68;;;5.10;;
14726;SDS011;7454;51.256;8.176;2022-07-25T12:57:37;8.32;;;4.78;;
14726;SDS011;7454;51.256;8.176;2022-07-25T13:00:04;9.98;;;5.00;;
14726;SDS011;7454;51.256;8.176;2022-07-25T13:02:32;14.50;;;5.03;;
14726;SDS011;7454;51.256;8.176;2022-07-25T13:04:58;10.45;;;4.82;;
14726;SDS011;7454;51.256;8.176;2022-07-25T13:07:24;18.08;;;5.93;;
14726;SDS011;7454;51.256;8.176;2022-07-25T13:09:50;9.65;;;5.13;;
14726;SDS011;7454;51.256;8.176;2022-07-25T13:12:16;9.63;;;4.32;;
14726;SDS011;7454;51.256;8.176;2022-07-25T13:14:41;15.05;;;4.80;;
14726;SDS011;7454;51.256;8.176;2022-07-25T13:17:07;9.40;;;5.00;;
14726;SDS011;7454;51.256;8.176;2022-07-25T13:19:33;11.50;;;5.18;;
14726;SDS011;7454;51.256;8.176;2022-07-25T13:21:59;9.75;;;4.95;;
14726;SDS011;7454;51.256;8.176;2022-07-25T13:24:25;13.73;;;5.05;;
14726;SDS011;7454;51.256;8.176;2022-07-25T13:26:50;11.00;;;4.63;;
14726;SDS011;7454;51.256;8.176;2022-07-25T13:29:16;10.95;;;5.35;;
14726;SDS011;7454;51.256;8.176;2022-07-25T13:31:42;10.40;;;4.95;;
14726;SDS011;7454;51.256;8.176;2022-07-25T13:34:08;10.63;;;5.30;;
14726;SDS011;7454;51.256;8.176;2022-07-25T13:36:35;10.27;;;4.90;;
14726;SDS011;7454;51.256;8.176;2022-07-25T13:39:02;9.50;;;5.13;;
14726;SDS011;7454;51.256;8.176;2022-07-25T13:41:28;9.48;;;4.90;;
14726;SDS011;7454;51.256;8.176;2022-07-25T13:43:54;10.95;;;5.65;;
14726;SDS011;7454;51.256;8.176;2022-07-25T13:46:21;12.25;;;5.25;;
14726;SDS011;7454;51.256;8.176;2022-07-25T13:48:47;19.20;;;5.30;;
14726;SDS011;7454;51.256;8.176;2022-07-25T13:51:13;16.35;;;5.85;;
14726;SDS011;7454;51.256;8.176;2022-07-25T13:53:39;11.45;;;5.20;;
14726;SDS011;7454;51.256;8.176;2022-07-25T13:56:05;14.77;;;5.47;;
14726;SDS011;7454;51.256;8.176;2022-07-25T13:58:31;13.65;;;5.53;;
14726;SDS011;7454;51.256;8.176;2022-07-25T14:00:57;13.15;;;5.32;;
14726;SDS011;7454;51.256;8.176;2022-07-25T14:03:23;10.88;;;5.45;;
14726;SDS011;7454;51.256;8.176;2022-07-25T14:05:49;8.70;;;5.10;;
14726;SDS011;7454;51.256;8.176;2022-07-25T14:08:15;13.45;;;5.70;;
14726;SDS011;7454;51.256;8.176;2022-07-25T14:10:41;10.07;;;4.78;;
14726;SDS011;7454;51.256;8.176;2022-07-25T14:13:07;16.63;;;5.32;;
14726;SDS011;7454;51.256;8.176;2022-07-25T14:15:33;10.80;;;5.05;;
14726;SDS011;7454;51.256;8.176;2022-07-25T14:17:59;9.38;;;4.72;;
14726;SDS011;7454;51.256;8.176;2022-07-25T14:20:25;9.88;;;4.72;;
14726;SDS011;7454;51.256;8.176;2022-07-25T14:22:51;11.25;;;5.05;;
14726;SDS011;7454;51.256;8.176;2022-07-25T14:25:17;8.32;;;4.80;;
14726;SDS011;7454;51.256;8.176;2022-07-25T14:27:43;9.30;;;5.05;;
14726;SDS011;7454;51.256;8.176;2022-07-25T14:30:09;9.45;;;5.10;;
14726;SDS011;7454;51.256;8.176;2022-07-25T14:32:36;11.05;;;5.43;;
14726;SDS011;7454;51.256;8.176;2022-07-25T14:35:02;14.95;;;5.80;;
14726;SDS011;7454;51.256;8.176;2022-07-25T14:37:30;15.30;;;5.80;;
14726;SDS011;7454;51.256;8.176;2022-07-25T14:39:59;13.07;;;5.45;;
14726;SDS011;7454;51.256;8.176;2022-07-25T14:42:26;10.52;;;5.55;;
14726;SDS011;7454;51.256;8.176;2022-07-25T14:44:52;13.32;;;5.78;;
14726;SDS011;7454;51.256;8.176;2022-07-25T14:47:19;10.65;;;5.70;;
14726;SDS011;7454;51.256;8.176;2022-07-25T14:49:45;11.82;;;6.38;;
14726;SDS011;7454;51.256;8.176;2022-07-25T14:52:12;13.57;;;5.93;;
14726;SDS011;7454;51.256;8.176;2022-07-25T14:54:38;15.10;;;5.70;;
14726;SDS011;7454;51.256;8.176;2022-07-25T14:57:05;10.07;;;5.40;;
14726;SDS011;7454;51.256;8.176;2022-07-25T14:59:32;15.35;;;5.75;;
14726;SDS011;7454;51.256;8.176;2022-07-25T15:01:58;12.98;;;5.10;;
14726;SDS011;7454;51.256;8.176;2022-07-25T15:04:24;12.05;;;5.47;;